createdAt,value
2022-08-21T00:02:25.730Z,93202.13
2022-08-21T00:04:54.635Z,93205.34
2022-08-21T00:07:27.155Z,93213.19
2022-08-21T00:09:56.028Z,93215.97
2022-08-21T00:12:24.932Z,93215.59
2022-08-21T00:14:57.984Z,93207.50
2022-08-21T00:17:27.038Z,93214.00
2022-08-21T00:19:55.674Z,93220.03
2022-08-21T00:22:24.311Z,93229.97
2022-08-21T00:24:53.092Z,93227.06
2022-08-21T00:27:21.817Z,93231.84
2022-08-21T00:29:50.611Z,93224.59
2022-08-21T00:32:24.819Z,93215.03
2022-08-21T00:34:54.727Z,93211.03
2022-08-21T00:37:23.883Z,93216.38
2022-08-21T00:39:52.766Z,93213.84
2022-08-21T00:42:22.662Z,93214.13
2022-08-21T00:44:52.806Z,93224.38
2022-08-21T00:47:21.911Z,93217.19
2022-08-21T00:49:50.628Z,93222.56
2022-08-21T00:52:24.828Z,93224.28
2022-08-21T00:54:55.391Z,93233.69
2022-08-21T00:57:33.468Z,93231.38
2022-08-21T01:00:06.743Z,93224.09
2022-08-21T01:02:36.705Z,93216.97
2022-08-21T01:05:06.206Z,93227.03
2022-08-21T01:07:35.050Z,93214.81
2022-08-21T01:10:04.909Z,93209.59
2022-08-21T01:12:34.676Z,93206.31
2022-08-21T01:15:08.123Z,93210.03
2022-08-21T01:17:38.076Z,93210.22
2022-08-21T01:20:11.486Z,93212.03
2022-08-21T01:22:40.856Z,93207.97
2022-08-21T01:25:11.219Z,93218.53
2022-08-21T01:27:41.544Z,93216.94
2022-08-21T01:30:21.050Z,93213.19
2022-08-21T01:32:50.204Z,93212.03
2022-08-21T01:35:21.053Z,93217.38
2022-08-21T01:37:50.579Z,93215.22
2022-08-21T01:40:20.320Z,93208.91
2022-08-21T01:42:49.240Z,93216.75
2022-08-21T01:45:18.817Z,93219.31
2022-08-21T01:47:48.061Z,93216.75
2022-08-21T01:50:20.424Z,93204.72
2022-08-21T01:52:49.500Z,93214.69
2022-08-21T01:55:20.368Z,93207.44
2022-08-21T01:57:49.628Z,93212.75
2022-08-21T02:00:22.940Z,93215.81
2022-08-21T02:02:51.931Z,93210.41
2022-08-21T02:05:21.372Z,93211.75
2022-08-21T02:07:53.116Z,93207.03
2022-08-21T02:10:28.885Z,93207.63
2022-08-21T02:12:59.004Z,93209.84
2022-08-21T02:15:28.216Z,93210.81
2022-08-21T02:17:59.976Z,93212.31
2022-08-21T02:20:38.461Z,93218.91
2022-08-21T02:23:08.575Z,93217.56
2022-08-21T02:25:38.099Z,93220.53
2022-08-21T02:28:13.016Z,93227.38
2022-08-21T02:30:47.302Z,93228.72
2022-08-21T02:33:17.324Z,93228.53
2022-08-21T02:35:47.573Z,93229.06
2022-08-21T02:38:20.730Z,93232.69
2022-08-21T02:40:52.206Z,93239.53
2022-08-21T02:43:22.491Z,93241.63
2022-08-21T02:45:51.967Z,93233.63
2022-08-21T02:48:24.090Z,93243.84
2022-08-21T02:51:05.650Z,93244.34
2022-08-21T02:53:36.151Z,93257.50
2022-08-21T02:56:08.347Z,93251.78
2022-08-21T02:58:40.580Z,93259.69
2022-08-21T03:01:12.531Z,93264.13
2022-08-21T03:03:45.720Z,93267.75
2022-08-21T03:06:17.256Z,93271.09
2022-08-21T03:08:47.420Z,93278.69
2022-08-21T03:11:17.370Z,93276.19
2022-08-21T03:13:46.065Z,93278.59
2022-08-21T03:16:14.450Z,93283.78
2022-08-21T03:18:43.124Z,93279.38
2022-08-21T03:21:11.559Z,93277.91
2022-08-21T03:23:42.138Z,93282.31
2022-08-21T03:26:13.013Z,93285.38
2022-08-21T03:28:42.845Z,93287.41
2022-08-21T03:31:11.499Z,93287.41
2022-08-21T03:33:39.914Z,93288.88
2022-08-21T03:36:10.524Z,93290.53
2022-08-21T03:38:40.410Z,93289.09
2022-08-21T03:41:10.375Z,93288.84
2022-08-21T03:43:40.786Z,93300.03
2022-08-21T03:46:10.072Z,93298.47
2022-08-21T03:48:39.713Z,93300.38
2022-08-21T03:51:09.045Z,93292.91
2022-08-21T03:53:38.499Z,93291.66
2022-08-21T03:56:08.170Z,93296.41
2022-08-21T03:58:37.085Z,93296.75
2022-08-21T04:01:08.668Z,93291.66
2022-08-21T04:03:38.850Z,93297.44
2022-08-21T04:06:08.160Z,93304.66
2022-08-21T04:08:37.543Z,93302.97
2022-08-21T04:11:07.964Z,93295.59
2022-08-21T04:13:44.673Z,93297.19
2022-08-21T04:16:14.779Z,93297.88
2022-08-21T04:18:43.987Z,93292.09
2022-08-21T04:21:14.143Z,93297.63
2022-08-21T04:23:43.003Z,93277.84
2022-08-21T04:26:11.739Z,93274.81
2022-08-21T04:28:40.485Z,93267.78
2022-08-21T04:31:09.310Z,93263.72
2022-08-21T04:33:37.999Z,93272.19
2022-08-21T04:36:07.156Z,93276.91
2022-08-21T04:38:37.785Z,93285.94
2022-08-21T04:41:08.796Z,93283.63
2022-08-21T04:43:38.403Z,93295.13
2022-08-21T04:46:08.013Z,93299.88
2022-08-21T04:48:42.933Z,93302.38
2022-08-21T04:51:17.530Z,93307.41
2022-08-21T04:53:51.479Z,93311.78
2022-08-21T04:56:36.642Z,93313.50
2022-08-21T04:59:09.403Z,93302.84
2022-08-21T05:01:40.214Z,93305.88
2022-08-21T05:04:13.112Z,93316.16
2022-08-21T05:06:44.599Z,93338.28
2022-08-21T05:09:17.208Z,93369.34
2022-08-21T05:11:46.840Z,93376.53
2022-08-21T05:14:15.901Z,93363.53
2022-08-21T05:16:46.167Z,93381.28
2022-08-21T05:19:15.321Z,93392.19
2022-08-21T05:21:47.228Z,93399.69
2022-08-21T05:24:15.923Z,93414.81
2022-08-21T05:26:46.224Z,93411.91
2022-08-21T05:29:20.065Z,93422.53
2022-08-21T05:31:49.788Z,93426.88
2022-08-21T05:34:22.882Z,93432.09
2022-08-21T05:36:51.941Z,93431.25
2022-08-21T05:39:20.641Z,93435.38
2022-08-21T05:41:50.017Z,93431.34
2022-08-21T05:44:18.453Z,93436.03
2022-08-21T05:46:49.378Z,93455.88
2022-08-21T05:49:19.905Z,93438.44
2022-08-21T05:51:48.352Z,93440.22
2022-08-21T05:54:17.015Z,93440.28
2022-08-21T05:56:46.726Z,93421.91
2022-08-21T05:59:15.545Z,93448.63
2022-08-21T06:01:44.594Z,93458.78
2022-08-21T06:04:13.755Z,93458.78
2022-08-21T06:06:42.409Z,93455.88
2022-08-21T06:09:11.062Z,93447.69
2022-08-21T06:11:39.484Z,93456.94
2022-08-21T06:14:08.951Z,93456.94
2022-08-21T06:16:37.641Z,93453.84
2022-08-21T06:19:06.475Z,93449.72
2022-08-21T06:21:34.873Z,93446.25
2022-08-21T06:24:03.582Z,93443.34
2022-08-21T06:26:32.377Z,93434.69
2022-08-21T06:29:01.021Z,93440.56
2022-08-21T06:31:30.949Z,93439.69
2022-08-21T06:33:59.641Z,93443.88
2022-08-21T06:36:28.571Z,93449.66
2022-08-21T06:38:58.062Z,93447.97
2022-08-21T06:41:27.265Z,93454.53
2022-08-21T06:43:57.482Z,93461.13
2022-08-21T06:46:29.748Z,93479.59
2022-08-21T06:48:59.619Z,93463.16
2022-08-21T06:51:29.662Z,93454.09
2022-08-21T06:53:59.583Z,93465.84
2022-08-21T06:56:28.285Z,93483.38
2022-08-21T06:58:57.015Z,93475.63
2022-08-21T07:01:28.615Z,93484.78
2022-08-21T07:03:57.497Z,93490.25
2022-08-21T07:06:25.728Z,93500.28
2022-08-21T07:08:54.366Z,93494.66
2022-08-21T07:11:27.931Z,93498.44
2022-08-21T07:13:58.713Z,93484.59
2022-08-21T07:16:27.706Z,93491.59
2022-08-21T07:18:56.481Z,93494.78
2022-08-21T07:21:26.115Z,93498.56
2022-08-21T07:23:56.227Z,93496.84
2022-08-21T07:26:26.470Z,93488.78
2022-08-21T07:28:56.162Z,93485.59
2022-08-21T07:31:26.754Z,93479.94
2022-08-21T07:33:55.695Z,93489.28
2022-08-21T07:36:24.556Z,93491.47
2022-08-21T07:38:53.655Z,93505.84
2022-08-21T07:41:26.172Z,93505.69
2022-08-21T07:43:55.166Z,93516.88
2022-08-21T07:46:24.288Z,93509.91
2022-08-21T07:48:53.644Z,93521.66
2022-08-21T07:51:27.677Z,93532.41
2022-08-21T07:53:58.960Z,93555.41
2022-08-21T07:56:28.191Z,93529.75
2022-08-21T07:58:57.850Z,93512.63
2022-08-21T08:01:27.004Z,93518.03
2022-08-21T08:03:55.699Z,93520.44
2022-08-21T08:06:25.243Z,93515.31
2022-08-21T08:08:54.358Z,93528.94
2022-08-21T08:11:23.159Z,93534.97
2022-08-21T08:13:54.698Z,93540.31
2022-08-21T08:16:23.159Z,93543.28
2022-08-21T08:18:52.476Z,93536.88
2022-08-21T08:21:23.253Z,93537.13
2022-08-21T08:23:52.143Z,93527.44
2022-08-21T08:26:20.764Z,93519.47
2022-08-21T08:28:50.147Z,93509.22
2022-08-21T08:31:18.898Z,93513.22
2022-08-21T08:33:47.482Z,93505.41
2022-08-21T08:36:18.133Z,93506.78
2022-08-21T08:38:49.566Z,93496.28
2022-08-21T08:41:30.611Z,93499.50
2022-08-21T08:44:07.043Z,93499.53
2022-08-21T08:46:48.886Z,93494.19
2022-08-21T08:49:20.352Z,93498.47
2022-08-21T08:52:24.631Z,93508.66
2022-08-21T08:55:04.737Z,93505.69
2022-08-21T08:57:35.686Z,93505.47
2022-08-21T09:00:12.477Z,93514.53
2022-08-21T09:02:42.335Z,93522.00
2022-08-21T09:05:20.887Z,93527.94
2022-08-21T09:07:54.460Z,93527.38
2022-08-21T09:10:31.706Z,93535.72
2022-08-21T09:13:09.527Z,93533.81
2022-08-21T09:15:47.991Z,93543.44
2022-08-21T09:18:29.873Z,93542.16
2022-08-21T09:21:39.482Z,93554.13
2022-08-21T09:24:34.318Z,93557.38
2022-08-21T09:27:07.132Z,93575.84
2022-08-21T09:29:40.186Z,93574.28
2022-08-21T09:32:37.584Z,93579.69
2022-08-21T09:35:19.399Z,93586.09
2022-08-21T09:37:51.117Z,93587.47
2022-08-21T09:40:45.308Z,93589.38
2022-08-21T09:43:13.842Z,93585.91
2022-08-21T09:45:45.409Z,93584.31
2022-08-21T09:48:22.411Z,93583.56
2022-08-21T09:51:07.192Z,93579.88
2022-08-21T09:53:37.290Z,93578.53
2022-08-21T09:56:36.831Z,93578.81
2022-08-21T09:59:21.435Z,93572.41
2022-08-21T10:01:54.233Z,93566.00
2022-08-21T10:04:26.491Z,93575.63
2022-08-21T10:06:56.937Z,93582.00
2022-08-21T10:09:26.874Z,93576.41
2022-08-21T10:12:11.673Z,93585.75
2022-08-21T10:15:00.799Z,93599.97
2022-08-21T10:17:52.248Z,93606.38
2022-08-21T10:20:29.966Z,93608.25
2022-08-21T10:23:42.893Z,93621.63
2022-08-21T10:26:33.339Z,93615.47
2022-08-21T10:29:15.583Z,93617.59
2022-08-21T10:32:26.189Z,93623.75
2022-08-21T10:35:21.469Z,93620.03
2022-08-21T10:38:08.286Z,93624.06
2022-08-21T10:41:30.429Z,93630.75
2022-08-21T10:44:51.579Z,93642.22
2022-08-21T10:47:37.885Z,93639.00
2022-08-21T10:50:12.520Z,93641.13
2022-08-21T10:53:03.007Z,93639.53
2022-08-21T10:55:42.342Z,93650.22
2022-08-21T10:58:21.065Z,93641.38
2022-08-21T11:00:57.798Z,93637.09
2022-08-21T11:03:41.758Z,93642.47
2022-08-21T11:06:34.368Z,93649.44
2022-08-21T11:09:14.999Z,93642.47
2022-08-21T11:12:11.057Z,93642.50
2022-08-21T11:15:04.961Z,93648.66
2022-08-21T11:17:51.876Z,93657.19
2022-08-21T11:20:51.592Z,93659.06
2022-08-21T11:23:44.144Z,93658.00
2022-08-21T11:26:30.295Z,93666.53
2022-08-21T11:29:14.428Z,93666.81
2022-08-21T11:32:16.636Z,93673.22
2022-08-21T11:34:59.772Z,93675.91
2022-08-21T11:37:28.453Z,93676.44
2022-08-21T11:40:03.427Z,93680.72
2022-08-21T11:42:53.343Z,93675.91
2022-08-21T11:45:42.498Z,93686.88
2022-08-21T11:48:32.365Z,93689.03
2022-08-21T11:51:04.601Z,93678.59
2022-08-21T11:53:42.503Z,93686.91
2022-08-21T11:56:21.046Z,93694.13
2022-08-21T11:58:57.815Z,93686.91
2022-08-21T12:01:36.250Z,93693.06
2022-08-21T12:04:09.290Z,93696.28
2022-08-21T12:06:39.233Z,93696.28
2022-08-21T12:09:33.752Z,93705.13
2022-08-21T12:12:33.797Z,93698.44
2022-08-21T12:15:23.895Z,93697.91
2022-08-21T12:17:55.544Z,93703.25
2022-08-21T12:20:24.187Z,93704.06
2022-08-21T12:23:26.504Z,93697.94
2022-08-21T12:26:27.446Z,93704.34
2022-08-21T12:29:13.697Z,93710.22
2022-08-21T12:31:53.316Z,93716.38
2022-08-21T12:34:26.075Z,93713.44
2022-08-21T12:37:06.306Z,93715.84
2022-08-21T12:39:39.071Z,93720.09
2022-08-21T12:42:27.546Z,93716.38
2022-08-21T12:45:06.744Z,93722.50
2022-08-21T12:47:57.061Z,93720.63
2022-08-21T12:50:37.949Z,93718.78
2022-08-21T12:53:21.090Z,93715.28
2022-08-21T12:55:49.828Z,93728.13
2022-08-21T12:58:26.807Z,93728.66
2022-08-21T13:01:01.868Z,93727.59
2022-08-21T13:03:30.948Z,93727.31
2022-08-21T13:06:00.988Z,93734.78
2022-08-21T13:08:30.427Z,93734.00
2022-08-21T13:11:13.391Z,93734.81
2022-08-21T13:13:46.856Z,93738.53
2022-08-21T13:16:26.906Z,93744.16
2022-08-21T13:19:07.767Z,93750.03
2022-08-21T13:21:43.162Z,93754.03
2022-08-21T13:27:29.610Z,93769.28
2022-08-21T13:30:12.051Z,93765.81
2022-08-21T13:32:47.671Z,93775.44
2022-08-21T13:35:20.843Z,93777.03
2022-08-21T13:37:53.817Z,93782.13
2022-08-21T13:40:30.423Z,93773.53
2022-08-21T13:42:59.658Z,93767.38
2022-08-21T13:45:35.832Z,93770.03
2022-08-21T13:48:06.716Z,93770.53
2022-08-21T13:50:39.471Z,93774.53
2022-08-21T13:53:21.522Z,93771.59
2022-08-21T13:55:50.425Z,93780.41
2022-08-21T13:58:32.282Z,93780.94
2022-08-21T14:01:04.976Z,93784.69
2022-08-21T14:03:51.273Z,93779.31
2022-08-21T14:06:24.817Z,93782.50
2022-08-21T14:09:00.724Z,93785.69
2022-08-21T14:11:35.416Z,93791.75
2022-08-21T14:14:08.078Z,93801.38
2022-08-21T14:16:49.031Z,93787.16
2022-08-21T14:19:24.952Z,93794.13
2022-08-21T14:21:54.093Z,93796.78
2022-08-21T14:24:25.809Z,93799.19
2022-08-21T14:27:09.341Z,93797.75
2022-08-21T14:29:44.079Z,93795.28
2022-08-21T14:32:24.377Z,93800.78
2022-08-21T14:34:55.312Z,93807.88
2022-08-21T14:37:27.936Z,93806.81
2022-08-21T14:39:56.653Z,93814.16
2022-08-21T14:42:26.250Z,93814.22
2022-08-21T14:45:00.702Z,93820.28
2022-08-21T14:47:30.610Z,93821.78
2022-08-21T14:49:59.479Z,93815.38
2022-08-21T14:52:28.259Z,93821.72
2022-08-21T14:54:56.952Z,93831.34
2022-08-21T14:57:28.189Z,93835.72
2022-08-21T15:00:01.580Z,93835.38
2022-08-21T15:02:30.812Z,93837.91
2022-08-21T15:04:59.497Z,93840.59
2022-08-21T15:07:28.250Z,93842.19
2022-08-21T15:09:57.048Z,93843.78
2022-08-21T15:12:27.412Z,93853.25
2022-08-21T15:14:56.291Z,93857.47
2022-08-21T15:17:25.235Z,93855.00
2022-08-21T15:19:53.867Z,93851.75
2022-08-21T15:22:27.667Z,93866.28
2022-08-21T15:24:56.881Z,93865.63
2022-08-21T15:27:25.529Z,93866.44
2022-08-21T15:29:56.351Z,93872.16
2022-08-21T15:32:31.623Z,93871.44
2022-08-21T15:35:00.788Z,93869.28
2022-08-21T15:37:29.282Z,93867.06
2022-08-21T15:39:58.164Z,93871.66
2022-08-21T15:42:30.977Z,93881.25
2022-08-21T15:45:00.610Z,93873.16
2022-08-21T15:47:33.881Z,93883.06
2022-08-21T15:50:03.399Z,93881.53
2022-08-21T15:52:32.133Z,93886.84
2022-08-21T15:55:00.756Z,93890.75
2022-08-21T15:57:30.438Z,93903.44
2022-08-21T16:00:14.765Z,93900.16
2022-08-21T16:02:49.419Z,93904.13
2022-08-21T16:05:19.429Z,93908.88
2022-08-21T16:07:49.364Z,93909.53
2022-08-21T16:10:20.628Z,93916.31
2022-08-21T16:13:06.776Z,93913.47
2022-08-21T16:15:35.534Z,93919.75
2022-08-21T16:18:03.961Z,93915.06
2022-08-21T16:20:32.642Z,93919.78
2022-08-21T16:23:01.450Z,93915.41
2022-08-21T16:25:30.253Z,93924.66
2022-08-21T16:28:04.221Z,93911.09
2022-08-21T16:30:34.037Z,93921.22
2022-08-21T16:33:05.010Z,93923.53
2022-08-21T16:35:34.040Z,93921.09
2022-08-21T16:38:02.933Z,93923.78
2022-08-21T16:40:31.667Z,93928.19
2022-08-21T16:43:00.744Z,93935.72
2022-08-21T16:45:33.047Z,93941.75
2022-08-21T16:48:01.417Z,93942.94
2022-08-21T16:50:29.822Z,93939.13
2022-08-21T16:52:58.372Z,93944.53
2022-08-21T16:55:27.391Z,93948.28
2022-08-21T16:57:57.112Z,93945.66
2022-08-21T17:00:25.753Z,93954.09
2022-08-21T17:02:57.023Z,93954.69
2022-08-21T17:05:25.729Z,93951.13
2022-08-21T17:07:54.149Z,93954.03
2022-08-21T17:10:23.242Z,93948.50
2022-08-21T17:12:58.076Z,93947.97
2022-08-21T17:15:35.640Z,93953.91
2022-08-21T17:18:07.097Z,93948.22
2022-08-21T17:20:36.223Z,93960.31
2022-08-21T17:23:05.223Z,93949.00
2022-08-21T17:25:34.172Z,93949.50
2022-08-21T17:28:04.129Z,93955.88
2022-08-21T17:30:32.360Z,93955.69
2022-08-21T17:33:02.758Z,93948.28
2022-08-21T17:35:31.455Z,93948.47
2022-08-21T17:38:00.162Z,93951.19
2022-08-21T17:40:29.031Z,93952.31
2022-08-21T17:42:59.080Z,93953.88
2022-08-21T17:45:28.383Z,93953.13
2022-08-21T17:47:57.297Z,93941.63
2022-08-21T17:50:26.116Z,93945.16
2022-08-21T17:52:54.809Z,93953.59
2022-08-21T17:55:24.476Z,93950.38
2022-08-21T17:57:54.589Z,93949.47
2022-08-21T18:00:26.418Z,93935.88
2022-08-21T18:03:17.786Z,93945.44
2022-08-21T18:05:48.372Z,93942.91
2022-08-21T18:08:17.495Z,93944.81
2022-08-21T18:10:48.887Z,93944.50
2022-08-21T18:13:28.566Z,93943.84
2022-08-21T18:16:01.681Z,93943.88
2022-08-21T18:18:38.150Z,93953.44
2022-08-21T18:21:06.819Z,93942.38
2022-08-21T18:23:43.479Z,93946.38
2022-08-21T18:26:16.956Z,93947.88
2022-08-21T18:28:44.910Z,93955.28
2022-08-21T18:31:14.401Z,93949.72
2022-08-21T18:33:56.971Z,93938.59
2022-08-21T18:36:29.615Z,93949.59
2022-08-21T18:39:19.357Z,93949.34
2022-08-21T18:41:50.621Z,93948.91
2022-08-21T18:44:22.017Z,93950.56
2022-08-21T18:46:58.553Z,93955.22
2022-08-21T18:49:27.937Z,93949.47
2022-08-21T18:51:57.464Z,93955.50
2022-08-21T18:54:26.108Z,93950.41
2022-08-21T18:56:55.677Z,93957.28
2022-08-21T18:59:28.934Z,93959.84
2022-08-21T19:01:58.296Z,93954.53
2022-08-21T19:04:43.769Z,93957.84
2022-08-21T19:07:14.878Z,93949.38
2022-08-21T19:09:56.873Z,93951.88
2022-08-21T19:12:31.328Z,93961.94
2022-08-21T19:15:00.731Z,93964.50
2022-08-21T19:17:30.040Z,93956.06
2022-08-21T19:20:03.584Z,93956.56
2022-08-21T19:22:32.597Z,93950.00
2022-08-21T19:25:01.242Z,93955.53
2022-08-21T19:27:30.497Z,93961.56
2022-08-21T19:29:59.425Z,93959.00
2022-08-21T19:32:28.284Z,93968.28
2022-08-21T19:34:58.075Z,93960.09
2022-08-21T19:37:26.871Z,93961.88
2022-08-21T19:39:56.670Z,93959.44
2022-08-21T19:42:28.717Z,93958.38
2022-08-21T19:44:58.295Z,93950.09
2022-08-21T19:47:29.458Z,93953.81
2022-08-21T19:50:01.055Z,93955.38
2022-08-21T19:52:35.716Z,93963.19
2022-08-21T19:55:06.008Z,93966.75
2022-08-21T19:57:34.699Z,93956.16
2022-08-21T20:00:03.425Z,93960.84
2022-08-21T20:02:33.018Z,93954.88
2022-08-21T20:05:01.854Z,93968.28
2022-08-21T20:07:30.256Z,93964.38
2022-08-21T20:10:00.970Z,93969.56
2022-08-21T20:12:29.661Z,93968.28
2022-08-21T20:14:58.427Z,93965.81
2022-08-21T20:17:27.450Z,93959.94
2022-08-21T20:19:56.331Z,93960.78
2022-08-21T20:22:25.150Z,93963.16
2022-08-21T20:24:55.317Z,93963.31
2022-08-21T20:27:27.793Z,93957.03
2022-08-21T20:29:56.604Z,93962.13
2022-08-21T20:32:25.377Z,93962.31
2022-08-21T20:34:55.061Z,93963.56
2022-08-21T20:37:36.267Z,93960.53
2022-08-21T20:40:12.223Z,93950.63
2022-08-21T20:42:49.731Z,93955.69
2022-08-21T20:45:26.052Z,93961.94
2022-08-21T20:48:00.890Z,93966.09
2022-08-21T20:53:54.999Z,93968.28
2022-08-21T20:56:35.003Z,93970.22
2022-08-21T20:59:33.995Z,93961.31
2022-08-21T21:02:18.748Z,93966.19
2022-08-21T21:05:23.515Z,93958.59
2022-08-21T21:08:11.887Z,93966.28
2022-08-21T21:10:59.180Z,93968.41
2022-08-21T21:13:58.031Z,93969.44
2022-08-21T21:16:33.590Z,93970.28
2022-08-21T21:19:14.205Z,93972.47
2022-08-21T21:22:04.644Z,93966.19
2022-08-21T21:25:00.406Z,93973.72
2022-08-21T21:27:37.294Z,93964.69
2022-08-21T21:30:22.407Z,93969.72
2022-08-21T21:32:52.511Z,93972.06
2022-08-21T21:38:38.527Z,93960.69
2022-08-21T21:41:35.264Z,93967.47
2022-08-21T21:44:22.180Z,93965.38
2022-08-21T21:47:11.508Z,93967.50
2022-08-21T21:50:04.787Z,93960.78
2022-08-21T21:52:54.664Z,93971.69
2022-08-21T21:55:48.158Z,93963.00
2022-08-21T21:58:44.737Z,93961.78
2022-08-21T22:01:27.638Z,93961.13
2022-08-21T22:04:05.397Z,93971.19
2022-08-21T22:07:10.526Z,93960.81
2022-08-21T22:09:52.727Z,93958.91
2022-08-21T22:15:26.413Z,93960.50
2022-08-21T22:18:12.673Z,93950.56
2022-08-21T22:21:22.435Z,93952.28
2022-08-21T22:23:57.185Z,93943.91
2022-08-21T22:26:45.652Z,93948.16
2022-08-21T22:29:21.278Z,93952.19
2022-08-21T22:32:09.526Z,93957.81
2022-08-21T22:34:38.216Z,93952.81
2022-08-21T22:37:11.779Z,93953.28
2022-08-21T22:39:44.818Z,93952.94
2022-08-21T22:42:24.756Z,93948.09
2022-08-21T22:44:54.434Z,93948.22
2022-08-21T22:47:31.970Z,93950.72
2022-08-21T22:50:05.117Z,93952.56
2022-08-21T22:52:37.829Z,93948.66
2022-08-21T22:55:25.234Z,93948.00
2022-08-21T22:58:20.862Z,93947.28
2022-08-21T23:01:00.568Z,93949.84
2022-08-21T23:03:43.794Z,93937.22
2022-08-21T23:06:44.282Z,93929.97
2022-08-21T23:09:30.518Z,93927.66
2022-08-21T23:12:21.000Z,93934.44
2022-08-21T23:14:54.872Z,93927.25
2022-08-21T23:17:50.088Z,93941.94
2022-08-21T23:20:24.440Z,93940.66
2022-08-21T23:23:23.036Z,93933.06
2022-08-21T23:26:17.718Z,93933.72
2022-08-21T23:28:52.807Z,93935.13
2022-08-21T23:31:53.284Z,93941.84
2022-08-21T23:34:27.109Z,93938.00
2022-08-21T23:37:24.368Z,93935.59
2022-08-21T23:40:28.220Z,93935.44
2022-08-21T23:43:31.668Z,93944.22
2022-08-21T23:46:08.985Z,93942.88
2022-08-21T23:49:08.510Z,93948.22
2022-08-21T23:51:49.207Z,93945.19
2022-08-21T23:54:28.661Z,93943.97
2022-08-21T23:57:38.233Z,93941.19
